Portada
METAR-TAF:

METAR-TAF

Aeropuertos :

Aeropuerto Internacional de Yap

Yap, Micronesia

latitud: 09-29N, longitud: 138-05E, altitud: 28 m

Observación

El informe se hizo hace 1 hora y 6 minutos, a las 23:52 UTC
Viento 11 kt del norte-noreste
Temperatura 29°C
Humedad 70%
Presión 1013 hPa
Visibilidad: 19.3 km
Escasas nubes a una altura de 1600 ft
Nubes dispersas a una altura de 30000 ft

METAR: PTYA 182352Z 03011KT 12SM FEW016 SCT300 29/23 A2992 RMK SLP132 8/101 T02940227 10294 20266 52019

Hora: 10:58 (00:58 UTC)

Pronóstico

El informe se hizo hace 1 hora y 34 minutos, a las 23:24 UTC
Pronóstico válido del 19 a las 00 UTC al 19 a las 24 UTC
Viento 11 kt del noreste
Visibilidad: 10 km
Escasas nubes a una altura de 1600 ft

TAF: PTYA 182324Z 1900/1924 04011KT P6SM FEW016

Observaciones y pronósticos meteorológicos de más de 4000 aeropuertos (mensajes METAR y TAF).

Los puntos amarillos y rojos representan las estaciones disponibles.

Ponga el ratón en el punto deseado para ver el nombre de la estación.

Haga clic para ver las observaciones y los pronósticos meteorológicos.

Para cambiar el mapa : haga clic en los botones verdes con una cruz de color negro para hacer un zoom, en el botón verde con un guión para alejar o en las flechas verdes para mapas adyacentes.


METAR-TAF: